createdAt,value
2019-02-05T00:00:37.034Z,6.90
2019-02-05T00:03:11.201Z,5.90
2019-02-05T00:05:40.124Z,5.50
2019-02-05T00:08:08.775Z,6.07
2019-02-05T00:10:37.361Z,5.77
2019-02-05T00:13:06.259Z,6.83
2019-02-05T00:15:35.030Z,5.87
2019-02-05T00:18:03.853Z,6.50
2019-02-05T00:20:32.419Z,6.00
2019-02-05T00:23:01.078Z,6.43
2019-02-05T00:25:29.702Z,6.43
2019-02-05T00:27:58.476Z,6.13
2019-02-05T00:30:27.462Z,5.87
2019-02-05T00:32:56.035Z,6.70
2019-02-05T00:35:24.590Z,6.40
2019-02-05T00:37:53.306Z,6.60
2019-02-05T00:40:22.059Z,6.43
2019-02-05T00:42:50.646Z,6.43
2019-02-05T00:45:20.454Z,7.10
2019-02-05T00:47:49.107Z,6.73
2019-02-05T00:50:19.318Z,6.70
2019-02-05T00:52:47.943Z,6.80
2019-02-05T00:55:18.363Z,6.73
2019-02-05T00:57:47.282Z,7.50
2019-02-05T01:00:22.222Z,6.80
2019-02-05T01:02:51.131Z,6.83
2019-02-05T01:05:20.299Z,6.53
2019-02-05T01:07:49.095Z,6.80
2019-02-05T01:10:18.419Z,7.30
2019-02-05T01:12:47.236Z,6.40
2019-02-05T01:15:17.836Z,6.03
2019-02-05T01:17:46.573Z,5.20
2019-02-05T01:20:17.380Z,6.30
2019-02-05T01:22:46.495Z,5.23
2019-02-05T01:25:16.725Z,5.93
2019-02-05T01:27:45.782Z,6.23
2019-02-05T01:30:22.736Z,6.03
2019-02-05T01:32:51.430Z,5.97
2019-02-05T01:35:20.430Z,6.50
2019-02-05T01:37:49.185Z,5.27
2019-02-05T01:40:26.542Z,6.27
2019-02-05T01:42:55.521Z,6.27
2019-02-05T01:45:25.206Z,5.73
2019-02-05T01:47:54.131Z,5.47
2019-02-05T01:50:24.947Z,5.80
2019-02-05T01:52:53.843Z,5.67
2019-02-05T01:55:23.150Z,5.00
2019-02-05T01:57:51.825Z,5.97
2019-02-05T02:00:26.094Z,5.90
2019-02-05T02:02:54.690Z,5.93
2019-02-05T02:05:23.635Z,6.47
2019-02-05T02:07:52.294Z,6.80
2019-02-05T02:10:22.908Z,6.03
2019-02-05T02:12:51.638Z,6.50
2019-02-05T02:15:20.271Z,6.30
2019-02-05T02:17:48.922Z,6.20
2019-02-05T02:20:19.131Z,5.53
2019-02-05T02:22:48.629Z,6.60
2019-02-05T02:25:17.858Z,6.40
2019-02-05T02:27:47.864Z,5.23
2019-02-05T02:30:22.343Z,5.93
2019-02-05T02:32:51.244Z,5.67
2019-02-05T02:35:19.868Z,5.93
2019-02-05T02:37:48.534Z,5.77
2019-02-05T02:40:17.405Z,5.73
2019-02-05T02:42:46.036Z,5.30
2019-02-05T02:45:15.813Z,5.67
2019-02-05T02:47:44.462Z,6.20
2019-02-05T02:50:18.293Z,4.73
2019-02-05T02:52:47.582Z,5.50
2019-02-05T02:55:16.416Z,5.70
2019-02-05T02:57:45.270Z,5.10
2019-02-05T03:00:21.856Z,5.70
2019-02-05T03:02:51.875Z,5.23
2019-02-05T03:05:25.372Z,5.70
2019-02-05T03:07:54.012Z,5.43
2019-02-05T03:10:28.161Z,5.97
2019-02-05T03:12:57.130Z,5.73
2019-02-05T03:15:25.831Z,6.23
2019-02-05T03:17:54.581Z,5.40
2019-02-05T03:20:23.591Z,5.33
2019-02-05T03:22:52.906Z,5.60
2019-02-05T03:25:25.657Z,5.47
2019-02-05T03:27:54.749Z,6.60
2019-02-05T03:30:25.064Z,5.53
2019-02-05T03:32:55.738Z,5.37
2019-02-05T03:35:24.873Z,11.47
2019-02-05T03:37:53.595Z,9.97
2019-02-05T03:40:30.952Z,10.00
2019-02-05T03:43:00.107Z,6.07
2019-02-05T03:45:31.711Z,5.70
2019-02-05T03:48:04.790Z,6.83
2019-02-05T03:50:38.987Z,5.30
2019-02-05T03:53:25.979Z,4.93
2019-02-05T03:56:21.503Z,5.10
2019-02-05T03:59:05.320Z,4.87
2019-02-05T04:01:55.026Z,5.62
2019-02-05T04:04:29.634Z,4.47
2019-02-05T04:07:03.875Z,5.07
2019-02-05T04:09:52.277Z,5.03
2019-02-05T04:12:24.354Z,4.87
2019-02-05T04:14:56.411Z,4.53
2019-02-05T04:17:33.822Z,4.63
2019-02-05T04:20:23.485Z,5.65
2019-02-05T04:23:04.167Z,4.60
2019-02-05T04:25:56.678Z,5.50
2019-02-05T04:28:28.378Z,4.50
2019-02-05T04:31:15.466Z,4.03
2019-02-05T04:34:08.314Z,4.83
2019-02-05T04:36:40.027Z,4.67
2019-02-05T04:39:28.268Z,5.30
2019-02-05T04:42:17.664Z,4.67
2019-02-05T04:44:52.419Z,4.27
2019-02-05T04:47:26.721Z,4.63
2019-02-05T04:49:58.418Z,4.83
2019-02-05T04:52:48.023Z,6.28
2019-02-05T04:55:41.115Z,5.40
2019-02-05T04:58:22.307Z,5.20
2019-02-05T05:01:29.161Z,4.67
2019-02-05T05:04:03.718Z,4.73
2019-02-05T05:06:47.646Z,4.53
2019-02-05T05:09:42.435Z,5.03
2019-02-05T05:12:11.073Z,5.00
2019-02-05T05:14:40.394Z,4.60
2019-02-05T05:17:08.985Z,5.27
2019-02-05T05:19:37.570Z,5.40
2019-02-05T05:22:06.576Z,4.73
2019-02-05T05:24:35.294Z,4.80
2019-02-05T05:27:05.427Z,4.70
2019-02-05T05:29:34.249Z,5.10
2019-02-05T05:32:03.380Z,5.70
2019-02-05T05:34:32.004Z,5.43
2019-02-05T05:36:59.522Z,4.90
2019-02-05T05:39:28.147Z,5.57
2019-02-05T05:41:56.714Z,5.27
2019-02-05T05:44:25.294Z,5.20
2019-02-05T05:46:53.958Z,5.33
2019-02-05T05:49:22.811Z,5.87
2019-02-05T05:51:51.366Z,5.50
2019-02-05T05:54:20.035Z,4.53
2019-02-05T05:56:48.582Z,5.27
2019-02-05T05:59:17.449Z,5.60
2019-02-05T06:01:46.028Z,5.10
2019-02-05T06:04:14.743Z,5.27
2019-02-05T06:06:43.686Z,5.67
2019-02-05T06:09:12.886Z,5.73
2019-02-05T06:11:41.450Z,6.03
2019-02-05T06:14:10.047Z,5.37
2019-02-05T06:16:38.671Z,5.70
2019-02-05T06:19:07.274Z,5.50
2019-02-05T06:21:35.841Z,5.40
2019-02-05T06:24:05.038Z,5.30
2019-02-05T06:26:33.714Z,5.83
2019-02-05T06:29:02.403Z,5.90
2019-02-05T06:31:30.970Z,5.07
2019-02-05T06:33:59.747Z,5.63
2019-02-05T06:36:28.445Z,4.80
2019-02-05T06:38:57.034Z,4.83
2019-02-05T06:41:25.690Z,5.00
2019-02-05T06:43:54.343Z,4.47
2019-02-05T06:46:22.917Z,4.13
2019-02-05T06:48:51.742Z,4.83
2019-02-05T06:51:20.391Z,4.63
2019-02-05T06:53:48.990Z,4.97
2019-02-05T06:56:17.947Z,4.40
2019-02-05T06:58:46.846Z,4.93
2019-02-05T07:01:15.530Z,5.50
2019-02-05T07:03:44.237Z,5.60
2019-02-05T07:06:13.089Z,5.03
2019-02-05T07:08:42.571Z,4.90
2019-02-05T07:11:11.348Z,5.37
2019-02-05T07:13:40.406Z,4.27
2019-02-05T07:16:09.347Z,4.83
2019-02-05T07:18:37.966Z,7.33
2019-02-05T07:21:06.615Z,7.33
2019-02-05T07:23:35.222Z,7.53
2019-02-05T07:26:04.038Z,6.10
2019-02-05T07:28:32.615Z,9.43
2019-02-05T07:31:01.524Z,9.27
2019-02-05T07:33:30.128Z,8.63
2019-02-05T07:35:58.732Z,8.50
2019-02-05T07:38:27.409Z,6.53
2019-02-05T07:40:56.182Z,6.60
2019-02-05T07:43:24.763Z,6.60
2019-02-05T07:45:53.391Z,5.00
2019-02-05T07:48:22.233Z,5.00
2019-02-05T07:50:51.003Z,4.83
2019-02-05T07:53:19.686Z,5.87
2019-02-05T07:55:48.343Z,4.87
2019-02-05T07:58:16.976Z,4.70
2019-02-05T08:00:45.632Z,4.47
2019-02-05T08:03:14.232Z,5.70
2019-02-05T08:05:42.834Z,4.60
2019-02-05T08:08:12.264Z,4.60
2019-02-05T08:10:40.848Z,5.23
2019-02-05T08:13:09.707Z,5.87
2019-02-05T08:15:38.352Z,5.83
2019-02-05T08:18:07.387Z,5.30
2019-02-05T08:20:35.977Z,4.90
2019-02-05T08:23:04.943Z,5.00
2019-02-05T08:25:33.539Z,4.37
2019-02-05T08:28:02.701Z,4.70
2019-02-05T08:30:36.968Z,4.80
2019-02-05T08:33:05.930Z,4.93
2019-02-05T08:35:34.572Z,5.27
2019-02-05T08:38:03.191Z,4.87
2019-02-05T08:40:31.848Z,5.27
2019-02-05T08:43:00.787Z,4.80
2019-02-05T08:45:34.720Z,4.67
2019-02-05T08:48:03.287Z,5.50
2019-02-05T08:50:33.507Z,4.73
2019-02-05T08:53:02.103Z,5.30
2019-02-05T08:55:31.040Z,4.87
2019-02-05T08:58:02.790Z,4.30
2019-02-05T09:00:37.127Z,4.40
2019-02-05T09:03:07.138Z,4.47
2019-02-05T09:05:35.747Z,4.07
2019-02-05T09:08:04.404Z,4.73
2019-02-05T09:10:35.505Z,4.53
2019-02-05T09:13:04.870Z,4.37
2019-02-05T09:15:33.776Z,3.80
2019-02-05T09:18:02.819Z,3.87
2019-02-05T09:20:31.559Z,4.50
2019-02-05T09:23:00.399Z,4.17
2019-02-05T09:25:29.137Z,3.97
2019-02-05T09:27:57.872Z,3.90
2019-02-05T09:30:35.012Z,3.90
2019-02-05T09:33:06.838Z,3.60
2019-02-05T09:35:35.475Z,3.83
2019-02-05T09:38:04.314Z,3.90
2019-02-05T09:40:33.865Z,3.47
2019-02-05T09:43:02.592Z,4.23
2019-02-05T09:45:31.997Z,4.00
2019-02-05T09:48:01.607Z,3.83
2019-02-05T09:50:43.479Z,4.43
2019-02-05T09:53:01.343Z,4.37
2019-02-05T09:55:30.008Z,4.17
2019-02-05T09:57:58.851Z,4.83
2019-02-05T10:00:33.143Z,3.93
2019-02-05T10:03:01.800Z,4.60
2019-02-05T10:05:34.995Z,4.13
2019-02-05T10:08:03.805Z,3.93
2019-02-05T10:10:32.379Z,4.30
2019-02-05T10:13:01.374Z,4.57
2019-02-05T10:15:35.336Z,5.10
2019-02-05T10:18:04.686Z,4.97
2019-02-05T10:20:33.423Z,5.40
2019-02-05T10:23:03.248Z,4.57
2019-02-05T10:25:32.178Z,5.97
2019-02-05T10:28:00.763Z,7.20
2019-02-05T10:30:31.692Z,7.30
2019-02-05T10:33:02.594Z,6.03
2019-02-05T10:35:31.164Z,6.97
2019-02-05T10:38:00.213Z,4.97
2019-02-05T10:40:29.150Z,4.80
2019-02-05T10:42:58.164Z,5.17
2019-02-05T10:45:27.416Z,5.67
2019-02-05T10:47:56.468Z,5.63
2019-02-05T10:50:25.501Z,5.37
2019-02-05T10:52:54.327Z,5.87
2019-02-05T10:55:23.551Z,5.47
2019-02-05T10:57:54.455Z,5.70
2019-02-05T11:00:28.534Z,5.83
2019-02-05T11:02:58.840Z,6.20
2019-02-05T11:05:29.284Z,5.93
2019-02-05T11:07:58.018Z,5.93
2019-02-05T11:10:26.676Z,5.97
2019-02-05T11:12:55.510Z,7.92
2019-02-05T11:15:29.364Z,6.57
2019-02-05T11:18:17.487Z,5.53
2019-02-05T11:20:46.095Z,6.20
2019-02-05T11:23:14.715Z,6.53
2019-02-05T11:25:43.424Z,6.33
2019-02-05T11:28:12.035Z,6.23
2019-02-05T11:30:43.353Z,6.47
2019-02-05T11:33:12.490Z,6.07
2019-02-05T11:35:41.202Z,6.30
2019-02-05T11:38:10.440Z,6.20
2019-02-05T11:40:40.655Z,5.97
2019-02-05T11:43:09.350Z,6.10
2019-02-05T11:45:38.037Z,6.70
2019-02-05T11:48:12.686Z,7.03
2019-02-05T11:50:41.434Z,6.20
2019-02-05T11:53:10.023Z,6.37
2019-02-05T11:55:39.194Z,7.33
2019-02-05T11:58:07.785Z,7.00
2019-02-05T12:00:38.264Z,7.47
2019-02-05T12:03:08.403Z,7.43
2019-02-05T12:05:37.527Z,8.13
2019-02-05T12:08:06.570Z,13.10
2019-02-05T12:10:35.255Z,8.43
2019-02-05T12:13:04.112Z,7.77
2019-02-05T12:15:32.902Z,7.70
2019-02-05T12:18:01.613Z,7.33
2019-02-05T12:20:30.275Z,8.53
2019-02-05T12:22:59.380Z,8.10
2019-02-05T12:25:28.284Z,7.87
2019-02-05T12:27:57.032Z,8.50
2019-02-05T12:30:44.416Z,8.77
2019-02-05T12:33:07.884Z,8.57
2019-02-05T12:35:37.246Z,7.63
2019-02-05T12:38:06.764Z,7.73
2019-02-05T12:40:36.092Z,8.57
2019-02-05T12:43:05.559Z,8.43
2019-02-05T12:45:35.954Z,8.80
2019-02-05T12:48:05.210Z,8.90
2019-02-05T12:50:42.152Z,9.87
2019-02-05T12:53:10.747Z,9.33
2019-02-05T12:55:39.435Z,9.90
2019-02-05T12:58:08.169Z,8.93
2019-02-05T13:00:58.278Z,8.67
2019-02-05T13:03:20.673Z,9.70
2019-02-05T13:05:49.394Z,9.10
2019-02-05T13:08:18.139Z,8.83
2019-02-05T13:10:49.562Z,10.67
2019-02-05T13:13:18.518Z,9.17
2019-02-05T13:15:47.189Z,10.10
2019-02-05T13:18:15.896Z,10.20
2019-02-05T13:20:44.876Z,9.33
2019-02-05T13:23:13.615Z,9.37
2019-02-05T13:25:42.619Z,9.43
2019-02-05T13:28:12.554Z,9.90
2019-02-05T13:30:41.322Z,8.73
2019-02-05T13:33:11.243Z,9.43
2019-02-05T13:35:40.584Z,10.30
2019-02-05T13:38:09.329Z,9.70
2019-02-05T13:40:38.072Z,10.30
2019-02-05T13:43:07.213Z,10.77
2019-02-05T13:45:38.600Z,11.30
2019-02-05T13:48:08.141Z,9.87
2019-02-05T13:50:37.175Z,10.33
2019-02-05T13:53:06.714Z,10.27
2019-02-05T13:55:40.523Z,11.35
2019-02-05T13:58:09.967Z,9.87
2019-02-05T14:00:46.946Z,11.17
2019-02-05T14:03:15.812Z,9.93
2019-02-05T14:05:45.316Z,9.73
2019-02-05T14:08:14.079Z,10.43
2019-02-05T14:10:45.010Z,10.50
2019-02-05T14:13:13.736Z,10.47
2019-02-05T14:15:45.179Z,11.37
2019-02-05T14:18:13.887Z,10.67
2019-02-05T14:20:42.637Z,11.13
2019-02-05T14:23:11.681Z,10.97
2019-02-05T14:25:40.418Z,11.67
2019-02-05T14:28:09.039Z,11.37
2019-02-05T14:30:49.335Z,11.70
2019-02-05T14:33:17.936Z,12.20
2019-02-05T14:35:46.635Z,12.40
2019-02-05T14:38:15.355Z,12.30
2019-02-05T14:40:44.072Z,12.37
2019-02-05T14:43:12.858Z,12.10
2019-02-05T14:45:41.908Z,12.87
2019-02-05T14:48:10.701Z,12.30
2019-02-05T14:50:41.938Z,12.03
2019-02-05T14:53:11.267Z,12.33
2019-02-05T14:55:39.975Z,11.80
2019-02-05T14:58:10.585Z,12.50
2019-02-05T15:00:39.904Z,11.67
2019-02-05T15:03:10.553Z,10.97
2019-02-05T15:05:39.875Z,11.20
2019-02-05T15:08:09.037Z,12.20
2019-02-05T15:10:37.635Z,12.17
2019-02-05T15:13:07.074Z,11.60
2019-02-05T15:15:36.238Z,13.63
2019-02-05T15:18:06.458Z,11.93
2019-02-05T15:20:40.545Z,13.30
2019-02-05T15:23:09.406Z,12.57
2019-02-05T15:25:38.444Z,11.67
2019-02-05T15:28:07.622Z,16.55
2019-02-05T15:30:41.742Z,13.20
2019-02-05T15:33:32.001Z,12.93
2019-02-05T15:36:02.258Z,10.93
2019-02-05T15:38:31.321Z,11.40
2019-02-05T15:41:00.248Z,12.47
2019-02-05T15:43:28.955Z,10.90
2019-02-05T15:45:57.695Z,12.33
2019-02-05T15:48:26.554Z,12.23
2019-02-05T15:50:55.157Z,13.40
2019-02-05T15:53:24.220Z,12.47
2019-02-05T15:55:52.999Z,12.83
2019-02-05T15:58:21.592Z,12.13
2019-02-05T16:00:50.319Z,12.10
2019-02-05T16:03:20.387Z,13.73
2019-02-05T16:05:49.037Z,12.77
2019-02-05T16:08:17.660Z,15.75
2019-02-05T16:10:46.344Z,13.10
2019-02-05T16:13:15.219Z,13.10
2019-02-05T16:15:43.838Z,13.53
2019-02-05T16:18:12.411Z,13.50
2019-02-05T16:20:41.018Z,14.07
2019-02-05T16:23:09.695Z,15.30
2019-02-05T16:25:38.682Z,17.67
2019-02-05T16:28:07.323Z,16.63
2019-02-05T16:30:36.072Z,14.27
2019-02-05T16:33:05.127Z,16.13
2019-02-05T16:35:33.735Z,15.17
2019-02-05T16:38:02.581Z,15.77
2019-02-05T16:40:36.250Z,13.70
2019-02-05T16:43:05.971Z,14.57
2019-02-05T16:45:34.751Z,15.77
2019-02-05T16:48:03.421Z,15.27
2019-02-05T16:50:34.749Z,14.77
2019-02-05T16:53:03.997Z,15.17
2019-02-05T16:55:33.207Z,14.30
2019-02-05T16:58:01.895Z,15.47
2019-02-05T17:00:35.251Z,13.97
2019-02-05T17:03:04.692Z,16.53
2019-02-05T17:05:35.935Z,14.40
2019-02-05T17:08:05.264Z,14.43
2019-02-05T17:10:34.009Z,15.97
2019-02-05T17:13:02.646Z,15.07
2019-02-05T17:15:31.296Z,14.00
2019-02-05T17:18:00.036Z,15.30
2019-02-05T17:20:30.682Z,16.27
2019-02-05T17:23:00.673Z,17.67
2019-02-05T17:25:30.894Z,15.83
2019-02-05T17:28:01.735Z,16.60
2019-02-05T17:30:33.504Z,14.80
2019-02-05T17:33:02.435Z,15.70
2019-02-05T17:35:31.086Z,14.87
2019-02-05T17:38:00.151Z,16.07
2019-02-05T17:40:28.910Z,13.87
2019-02-05T17:42:57.484Z,14.37
2019-02-05T17:45:28.751Z,16.70
2019-02-05T17:47:58.102Z,16.63
2019-02-05T17:50:26.748Z,14.63
2019-02-05T17:52:55.368Z,15.30
2019-02-05T17:55:24.475Z,16.27
2019-02-05T17:57:53.232Z,15.83
2019-02-05T18:00:48.872Z,17.13
2019-02-05T18:03:17.599Z,16.97
2019-02-05T18:05:46.571Z,17.70
2019-02-05T18:08:15.191Z,18.33
2019-02-05T18:10:43.772Z,16.80
2019-02-05T18:13:12.391Z,18.67
2019-02-05T18:15:43.012Z,16.23
2019-02-05T18:18:11.743Z,15.07
2019-02-05T18:20:40.350Z,16.83
2019-02-05T18:23:09.024Z,16.53
2019-02-05T18:25:37.700Z,16.27
2019-02-05T18:28:06.542Z,15.27
2019-02-05T18:30:37.804Z,16.23
2019-02-05T18:33:07.143Z,16.43
2019-02-05T18:35:36.076Z,15.77
2019-02-05T18:38:08.364Z,16.63
2019-02-05T18:40:37.048Z,15.50
2019-02-05T18:43:05.958Z,15.00
2019-02-05T18:45:34.578Z,15.90
2019-02-05T18:48:03.251Z,15.70
2019-02-05T18:50:31.928Z,17.00
2019-02-05T18:53:00.532Z,16.23
2019-02-05T18:55:43.357Z,16.27
2019-02-05T18:58:12.002Z,17.53
2019-02-05T19:00:45.588Z,17.33
2019-02-05T19:03:16.002Z,19.20
2019-02-05T19:05:44.731Z,18.80
2019-02-05T19:08:16.323Z,17.43
2019-02-05T19:10:43.864Z,17.33
2019-02-05T19:13:12.540Z,18.57
2019-02-05T19:15:41.678Z,18.70
2019-02-05T19:18:11.384Z,19.17
2019-02-05T19:20:40.158Z,17.93
2019-02-05T19:23:10.380Z,20.07
2019-02-05T19:25:56.329Z,17.97
2019-02-05T19:28:30.403Z,18.63
2019-02-05T19:31:00.858Z,17.37
2019-02-05T19:33:29.478Z,18.30
2019-02-05T19:35:58.125Z,20.00
2019-02-05T19:38:26.740Z,19.37
2019-02-05T19:40:57.669Z,19.93
2019-02-05T19:43:25.700Z,22.22
2019-02-05T19:45:58.659Z,21.40
2019-02-05T19:48:33.437Z,21.47
2019-02-05T19:51:01.973Z,19.30
2019-02-05T19:53:30.611Z,20.33
2019-02-05T19:55:59.492Z,18.73
2019-02-05T19:58:28.076Z,20.40
2019-02-05T20:00:57.066Z,20.55
2019-02-05T20:03:26.009Z,19.73
2019-02-05T20:05:54.704Z,25.85
2019-02-05T20:08:23.373Z,19.73
2019-02-05T20:10:52.087Z,21.00
2019-02-05T20:13:20.654Z,19.80
2019-02-05T20:15:51.165Z,17.93
2019-02-05T20:18:19.560Z,19.10
2019-02-05T20:20:48.332Z,19.17
2019-02-05T20:23:17.047Z,22.17
2019-02-05T20:25:45.636Z,21.20
2019-02-05T20:28:14.612Z,21.57
2019-02-05T20:30:43.192Z,20.33
2019-02-05T20:33:12.120Z,19.00
2019-02-05T20:35:40.768Z,18.57
2019-02-05T20:38:09.512Z,21.90
2019-02-05T20:40:38.118Z,18.83
2019-02-05T20:43:06.696Z,21.50
2019-02-05T20:45:35.323Z,21.03
2019-02-05T20:48:04.682Z,23.10
2019-02-05T20:50:33.341Z,22.87
2019-02-05T20:53:13.059Z,22.77
2019-02-05T20:55:32.170Z,20.43
2019-02-05T20:58:00.912Z,20.80
2019-02-05T21:00:34.059Z,21.17
2019-02-05T21:03:02.649Z,19.80
2019-02-05T21:05:31.330Z,19.73
2019-02-05T21:08:00.302Z,19.90
2019-02-05T21:10:30.341Z,21.03
2019-02-05T21:12:59.032Z,19.20
2019-02-05T21:15:28.213Z,19.20
2019-02-05T21:17:56.886Z,19.30
2019-02-05T21:20:33.549Z,20.47
2019-02-05T21:23:01.752Z,19.50
2019-02-05T21:25:30.487Z,20.00
2019-02-05T21:27:59.278Z,21.93
2019-02-05T21:30:28.855Z,21.13
2019-02-05T21:32:57.483Z,20.57
2019-02-05T21:35:26.295Z,21.83
2019-02-05T21:37:54.904Z,28.60
2019-02-05T21:40:26.131Z,23.30
2019-02-05T21:42:54.788Z,22.93
2019-02-05T21:45:31.095Z,21.80
2019-02-05T21:47:59.691Z,20.57
2019-02-05T21:50:28.519Z,21.47
2019-02-05T21:52:57.664Z,19.97
2019-02-05T21:55:29.501Z,20.73
2019-02-05T21:57:58.240Z,20.17
2019-02-05T22:00:29.435Z,21.93
2019-02-05T22:02:58.445Z,19.87
2019-02-05T22:05:28.515Z,21.07
2019-02-05T22:07:57.192Z,23.17
2019-02-05T22:10:25.830Z,19.63
2019-02-05T22:12:54.899Z,22.30
2019-02-05T22:15:23.956Z,21.27
2019-02-05T22:17:52.751Z,22.23
2019-02-05T22:20:26.242Z,22.23
2019-02-05T22:22:58.042Z,22.67
2019-02-05T22:25:29.607Z,20.70
2019-02-05T22:27:58.415Z,25.72
2019-02-05T22:30:35.061Z,19.47
2019-02-05T22:33:04.806Z,21.40
2019-02-05T22:35:33.396Z,22.47
2019-02-05T22:38:02.075Z,21.03
2019-02-05T22:40:30.831Z,22.77
2019-02-05T22:42:59.423Z,21.43
2019-02-05T22:45:34.507Z,20.83
2019-02-05T22:48:03.207Z,20.93
2019-02-05T22:50:33.851Z,20.97
2019-02-05T22:53:05.322Z,22.27
2019-02-05T22:55:34.004Z,22.07
2019-02-05T22:58:02.653Z,22.47
2019-02-05T23:00:56.354Z,23.37
2019-02-05T23:03:28.248Z,19.77
2019-02-05T23:06:21.268Z,22.00
2019-02-05T23:08:50.100Z,19.67
2019-02-05T23:11:45.036Z,20.27
2019-02-05T23:14:13.642Z,19.53
2019-02-05T23:16:42.372Z,21.67
2019-02-05T23:19:11.484Z,20.60
2019-02-05T23:21:40.611Z,21.30
2019-02-05T23:24:09.231Z,28.20
2019-02-05T23:26:37.893Z,24.57
2019-02-05T23:29:06.931Z,24.33
2019-02-05T23:31:35.551Z,24.33
2019-02-05T23:34:04.222Z,21.23
2019-02-05T23:36:32.844Z,22.70
2019-02-05T23:39:01.486Z,24.90
2019-02-05T23:41:30.060Z,23.37
2019-02-05T23:43:58.715Z,21.60
2019-02-05T23:46:27.363Z,27.98
2019-02-05T23:48:56.305Z,25.23
2019-02-05T23:51:24.993Z,21.60
2019-02-05T23:53:53.693Z,21.50
2019-02-05T23:56:25.677Z,20.80
2019-02-05T23:58:52.520Z,21.80
